Date,TemperatureHighF,TemperatureAvgF,TemperatureLowF,DewpointHighF,DewpointAvgF,DewpointLowF,HumidityHigh,HumidityAvg,HumidityLow,PressureMaxIn,PressureMinIn,WindSpeedMaxMPH,WindSpeedAvgMPH,GustSpeedMaxMPH,PrecipitationSumIn
2013-1-1,27,22,16,14,8,3,76,57,41,30.37,30.19,21,5,21,0.00
2013-1-2,28,20,11,13,6,-2,71,54,39,30.53,30.30,26,5,26,0.00
2013-1-3,37,24,12,3,-2,-6,52,34,16,30.52,30.28,20,3,20,0.00
2013-1-4,42,21,10,8,2,-4,61,44,23,30.39,30.15,14,1,14,0.00
2013-1-5,35,21,5,9,1,-100,70,47,27,30.54,30.25,17,-8,17,0.00
2013-1-6,45,35,13,7,3,-4,62,28,15,30.34,29.83,29,6,29,0.00
2013-1-7,44,36,31,14,3,-100,43,27,20,29.99,29.66,32,-3,32,0.00
2013-1-8,43,37,33,20,16,13,54,43,30,30.12,29.68,31,10,31,0.00
2013-1-9,52,46,36,20,15,8,51,30,18,30.15,29.64,34,9,34,0.00
2013-1-10,50,46,36,19,9,-100,46,24,16,29.64,29.29,30,-2,30,0.00
2013-1-11,36,13,4,21,4,-7,84,69,47,30.23,29.30,24,3,24,0.00
2013-1-12,10,5,0,-1,-5,-9,71,63,55,30.40,30.23,20,4,20,0.00
2013-1-13,12,4,-1,-2,-6,-9,74,63,46,30.50,30.37,13,2,13,0.00
2013-1-14,13,7,-4,-6,-10,-14,71,48,35,30.50,30.29,18,4,18,0.00
2013-1-15,32,24,12,13,4,-100,50,44,37,30.33,30.17,29,-3,29,0.00
2013-1-16,42,34,29,14,10,6,48,37,25,30.38,30.17,22,6,22,0.00
2013-1-17,46,34,18,11,7,3,60,34,19,30.52,30.11,22,5,22,0.00
2013-1-18,48,43,39,8,4,1,23,20,16,30.12,29.92,28,9,28,0.00
2013-1-19,48,41,35,9,5,0,30,22,15,30.18,29.97,25,7,25,0.00
2013-1-20,39,30,16,16,10,4,69,46,24,30.38,30.05,22,3,22,0.00
2013-1-21,48,39,16,14,8,2,70,29,18,30.38,29.94,26,7,26,0.00
2013-1-22,53,46,40,5,0,-5,21,15,10,30.02,29.92,22,8,22,0.00
2013-1-23,56,50,46,7,0,-8,19,12,9,30.00,29.84,29,10,29,0.00
2013-1-24,50,46,40,28,19,5,57,37,17,30.04,29.78,32,10,32,0.00
2013-1-25,50,43,37,25,22,19,56,45,31,30.09,29.91,30,9,30,0.00
2013-1-26,51,46,40,27,24,20,52,43,35,29.91,29.59,28,6,28,0.00
2013-1-27,51,45,40,28,26,24,56,47,36,29.61,29.52,23,5,23,0.00
2013-1-28,39,26,18,27,21,11,89,81,61,29.88,29.55,9,1,9,0.05
2013-1-29,27,19,8,13,5,0,76,56,36,30.27,29.82,14,4,14,0.04
2013-1-30,32,24,4,18,10,-3,80,54,42,30.21,29.91,25,6,25,0.00
2013-1-31,41,29,19,23,17,13,82,63,39,30.28,30.01,16,3,16,0.02
2013-2-1,40,34,25,30,20,17,79,58,48,30.26,29.97,23,5,23,0.00
2013-2-2,47,37,26,20,13,7,69,40,21,30.34,30.16,24,6,24,0.00
2013-2-3,48,40,34,16,12,9,45,33,22,30.17,29.86,22,6,22,0.00
2013-2-6,44,44,43,12,11,10,27,26,26,29.81,29.80,9,5,9,0.00
2013-2-13,32,29,27,25,22,20,77,75,73,30.08,30.02,8,0,8,0.01
2013-2-14,30,24,20,24,16,11,83,71,58,30.43,30.02,20,3,20,0.01
2013-2-15,35,27,17,19,14,10,84,60,37,30.50,30.24,24,5,24,0.01
2013-2-16,45,38,32,21,16,12,48,41,30,30.24,29.77,22,7,22,0.00
2013-2-17,43,36,26,25,15,7,80,45,26,29.89,29.55,30,7,30,0.00
2013-2-18,34,25,14,20,13,6,79,62,33,30.19,29.89,22,3,22,0.00
2013-2-19,44,26,10,28,10,5,83,56,22,30.19,29.73,18,2,18,0.00
2013-2-20,38,26,17,18,15,12,79,64,38,29.87,29.69,13,2,13,0.00
2013-2-21,27,23,18,18,16,10,84,73,61,30.03,29.79,16,2,16,0.01
2013-2-22,34,26,16,16,10,3,77,53,28,30.08,29.80,21,5,21,0.00
2013-2-23,38,30,25,25,16,8,88,58,43,29.84,29.62,29,7,29,0.00
2013-2-24,30,23,12,21,16,7,87,77,59,30.29,29.84,17,2,17,0.11
2013-2-25,36,27,8,18,8,3,84,48,31,30.26,29.80,26,4,26,0.02
2013-2-26,31,26,20,22,19,9,87,75,41,30.32,29.83,21,2,21,0.01
2013-2-27,29,24,15,15,9,4,77,54,38,30.43,30.31,21,4,21,0.01
2013-2-28,36,29,21,13,8,5,61,42,28,30.38,30.24,23,5,23,0.00
2013-3-1,46,37,21,24,16,-100,60,43,32,30.40,30.22,24,-6,24,0.01
2013-3-2,52,45,36,26,23,18,58,41,28,30.24,29.76,22,6,22,0.00
2013-3-3,51,43,26,30,22,-100,72,46,33,29.80,29.47,30,-2,30,0.00
2013-3-4,30,24,12,20,7,-2,82,52,26,30.47,29.79,29,6,29,0.00
2013-3-5,13,11,9,6,4,2,76,74,72,30.46,30.42,2,0,2,0.00
2013-3-9,32,30,27,16,15,13,63,53,45,30.22,30.13,8,1,8,0.00
2013-3-10,50,35,17,22,14,8,80,46,23,30.34,29.92,16,3,16,0.00
2013-3-11,43,34,24,28,22,12,87,64,29,30.30,29.84,16,3,16,0.12
2013-3-12,48,31,14,24,18,8,85,63,33,30.45,30.15,13,1,13,0.17
2013-3-13,60,50,32,32,24,20,71,38,23,30.17,29.97,23,6,23,0.00
2013-3-14,67,55,42,25,22,18,44,27,16,30.12,29.81,22,5,22,0.00
2013-3-15,66,57,41,26,18,13,51,23,13,29.85,29.59,29,6,29,0.00
2013-3-16,54,41,30,30,25,18,86,57,28,29.88,29.71,15,2,15,0.00
2013-3-17,48,39,30,32,17,-8,91,49,15,29.74,29.39,38,9,38,0.00
2013-3-18,31,31,31,9,7,6,40,36,34,29.95,29.93,4,0,4,0.00
2013-3-19,40,29,21,22,16,7,87,60,25,30.40,29.93,21,4,21,0.07
2013-3-20,53,34,14,29,18,6,83,55,16,30.37,29.57,30,5,30,0.00
2013-3-21,45,36,21,30,26,18,88,70,49,29.92,29.36,24,5,24,0.08
2013-3-22,31,25,20,23,17,9,90,72,50,30.11,29.88,13,2,13,0.26
2013-3-23,28,19,14,15,8,4,82,62,42,30.37,30.11,10,2,10,0.02
2013-3-24,23,18,14,14,8,1,78,65,41,30.45,30.25,21,3,21,0.00
2013-3-25,39,23,7,10,6,1,78,50,24,30.51,30.11,20,3,20,0.01
2013-3-26,47,38,30,29,15,5,72,40,25,30.11,29.89,17,4,17,0.00
2013-3-27,57,42,26,31,24,21,82,54,27,30.07,29.89,15,1,15,0.00
2013-3-28,61,44,28,28,22,15,77,47,19,30.06,29.91,14,1,14,0.00
2013-3-29,64,49,34,36,25,15,74,43,16,29.99,29.87,20,3,20,0.00
2013-3-30,53,40,33,37,30,23,90,70,34,30.19,29.96,23,2,23,0.19
2013-3-31,62,47,30,29,21,15,78,41,16,30.18,29.83,18,4,18,0.00
2013-4-1,55,41,27,28,22,19,80,50,27,30.11,29.95,11,2,11,0.00
2013-4-2,58,42,26,26,19,14,69,42,18,30.11,29.93,10,2,10,0.00
2013-4-3,65,46,30,36,24,16,78,47,18,30.08,29.88,18,2,18,0.01
2013-4-4,69,51,31,39,27,18,89,48,16,30.06,29.61,21,3,21,0.01
2013-4-5,66,57,44,34,26,16,66,32,21,29.70,29.40,34,7,34,0.00
2013-4-6,60,50,39,30,22,13,56,35,16,29.80,29.63,24,4,24,0.00
2013-4-7,56,50,43,30,25,19,51,38,26,29.66,29.43,28,8,28,0.00
2013-4-8,49,30,14,32,20,9,85,70,36,30.23,29.44,16,5,16,0.00
2013-4-9,14,12,10,9,6,5,81,78,74,30.58,30.23,11,2,11,0.00
2013-4-10,31,19,9,15,10,4,79,68,43,30.51,30.00,15,3,15,0.34
2013-4-11,48,36,20,30,22,-100,81,64,43,30.00,29.75,16,-8,16,0.07
2013-4-12,45,36,28,31,27,22,90,73,41,30.01,29.80,16,2,16,0.28
2013-4-13,51,41,26,36,26,19,88,59,35,29.89,29.24,26,6,26,0.01
2013-4-14,40,32,24,29,18,5,88,60,24,29.89,29.42,28,6,28,0.16
2013-4-15,29,24,20,22,16,13,79,72,62,30.16,29.83,13,2,13,0.05
2013-4-16,24,21,19,19,16,12,86,81,63,30.32,30.08,15,4,15,0.00
2013-4-17,23,20,17,17,15,12,86,82,74,30.41,30.26,13,2,13,0.08
2013-4-18,36,25,14,17,13,8,84,62,42,30.39,30.17,18,5,18,0.17
2013-4-19,50,41,32,29,20,12,60,43,31,30.17,29.76,21,6,21,0.04
2013-4-20,56,46,40,35,29,24,78,53,32,29.85,29.70,20,3,20,0.00
2013-4-21,57,44,31,34,28,-100,86,59,24,29.98,29.79,21,3,21,0.00
2013-4-22,31,24,18,27,18,10,86,77,63,30.51,29.92,16,3,16,0.06
2013-4-23,40,25,8,17,9,-2,83,54,19,30.51,30.19,21,4,21,0.07
2013-4-24,48,36,27,18,12,5,54,38,21,30.25,30.04,24,4,24,0.00
2013-4-25,64,51,34,19,8,-100,49,20,8,30.05,29.67,29,-5,29,0.00
2013-4-26,68,51,29,24,18,11,64,31,13,30.08,29.87,17,1,17,0.00
2013-4-27,74,57,35,30,20,11,58,28,9,30.03,29.69,21,3,21,0.00
2013-4-28,69,59,44,35,25,18,70,29,18,29.75,29.56,21,4,21,0.00
2013-4-29,68,55,37,36,25,17,84,37,16,29.71,29.31,33,8,33,0.00
2013-4-30,42,37,30,32,24,17,89,60,37,30.11,29.54,13,4,13,0.00
2013-5-1,35,29,24,28,22,18,90,78,56,30.70,30.11,10,2,10,0.34
2013-5-2,52,38,25,22,17,7,80,47,18,30.72,30.35,17,4,17,0.00
2013-5-3,65,48,27,22,17,11,69,34,14,30.36,29.91,15,1,15,0.00
2013-5-4,58,48,38,26,22,18,58,38,22,30.10,29.93,16,3,16,0.00
2013-5-5,62,48,34,27,22,19,60,38,21,30.11,29.91,16,2,16,0.00
2013-5-6,70,54,37,31,28,23,71,41,17,29.97,29.72,10,1,10,0.00
2013-5-7,67,54,39,39,33,29,69,45,27,29.80,29.68,15,1,15,0.00
2013-5-8,70,56,42,36,31,22,71,42,18,29.90,29.73,23,2,23,0.00
2013-5-9,68,53,41,43,35,27,80,54,23,30.02,29.89,21,2,21,0.00
2013-5-10,70,55,37,40,32,20,88,50,15,30.16,29.98,16,3,16,0.00
2013-5-11,70,52,43,37,34,26,73,53,20,30.24,30.03,14,1,14,0.00
2013-5-12,66,64,62,34,32,30,35,30,27,29.78,29.76,6,0,6,0.00
2013-5-13,87,72,54,36,32,26,49,25,12,29.83,29.52,15,2,15,0.00
2013-5-14,86,74,60,39,28,20,38,19,10,29.63,29.44,22,3,22,0.00
2013-5-15,82,63,48,49,38,28,75,45,15,29.73,29.52,21,2,21,0.04
2013-5-16,76,63,50,55,42,28,85,51,22,29.65,29.49,29,3,29,0.14
2013-5-17,81,64,51,51,41,15,90,54,10,29.63,29.44,21,2,21,0.02
2013-5-18,70,57,46,47,40,26,86,56,24,29.68,29.57,22,2,22,0.01
2013-5-19,53,48,46,46,45,40,92,87,63,29.80,29.61,17,2,17,1.96
2013-5-20,53,46,43,43,38,29,92,75,42,30.03,29.78,18,4,18,0.27
2013-5-21,66,52,42,38,31,-100,84,51,22,30.02,29.72,15,-7,15,0.02
2013-5-22,66,52,39,43,38,33,90,64,31,29.82,29.69,22,4,22,0.00
2013-5-23,78,59,44,48,42,35,86,59,21,29.77,29.44,33,7,33,0.00
2013-5-24,76,65,57,40,26,17,44,24,11,29.72,29.40,31,5,31,0.00
2013-5-25,83,65,47,37,27,13,54,28,8,29.75,29.52,21,1,21,0.00
2013-5-26,78,65,51,48,38,19,67,40,13,29.72,29.46,13,1,13,0.00
2013-5-27,76,63,49,49,36,12,84,46,12,29.60,29.46,29,4,29,0.00
2013-5-28,73,58,44,40,36,31,67,46,27,29.58,29.38,20,2,20,0.00
2013-5-29,60,54,48,47,40,32,85,60,43,29.50,29.38,22,5,22,0.00
2013-5-30,60,53,49,38,35,29,65,51,36,29.64,29.42,29,8,29,0.02
2013-5-31,58,50,45,38,29,-100,68,51,34,30.01,29.61,30,8,30,0.00
2013-6-1,69,55,44,38,33,29,76,47,23,30.16,29.91,13,2,13,0.00
2013-6-2,86,64,40,41,31,24,81,38,12,29.96,29.30,18,1,18,0.00
2013-6-3,72,72,71,26,25,24,18,17,17,29.30,29.27,9,0,9,0.00
2013-6-8,75,69,57,45,35,24,54,31,15,29.76,29.64,20,4,20,0.18
2013-6-9,92,69,46,47,39,26,80,41,10,29.76,29.44,14,1,14,0.00
2013-6-10,92,79,69,48,38,28,44,24,13,29.56,29.33,23,1,23,0.00
2013-6-11,90,72,55,53,40,20,84,41,9,29.65,29.39,26,3,26,0.00
2013-6-12,84,69,50,50,43,35,82,43,20,29.82,29.58,17,2,17,0.00
2013-6-13,89,69,51,56,44,31,86,49,13,29.74,29.42,28,2,28,0.00
2013-6-14,80,66,52,52,34,9,77,39,9,29.83,29.41,28,4,28,0.00
2013-6-15,79,63,44,44,37,28,73,41,16,29.91,29.69,9,0,9,0.00
2013-6-16,87,70,52,44,33,20,58,31,9,29.81,29.66,10,1,10,0.00
2013-6-17,84,68,55,49,44,30,71,44,17,29.83,29.71,15,1,15,0.00
2013-6-18,86,67,50,49,40,25,79,44,12,29.81,29.51,20,2,20,0.00
2013-6-19,92,75,53,47,30,11,66,28,6,29.52,29.26,22,2,22,0.00
2013-6-20,83,71,57,37,18,10,36,14,7,29.63,29.37,18,3,18,0.00
2013-6-21,86,68,55,53,40,16,74,40,9,29.69,29.49,22,2,22,0.00
2013-6-22,77,62,52,53,48,38,83,62,31,29.75,29.48,25,1,25,0.01
2013-6-23,84,64,45,48,32,-100,86,42,9,29.85,29.46,21,-9,21,0.00
2013-6-24,90,73,50,45,32,17,67,29,7,29.66,29.30,20,1,20,0.00
2013-6-25,83,74,62,39,35,26,40,25,16,29.61,29.31,29,7,29,0.00
2013-6-26,92,77,56,47,37,32,54,26,13,29.73,29.58,23,3,23,0.00
2013-6-27,96,78,59,51,41,26,67,34,9,29.85,29.72,21,2,21,0.00
2013-6-28,92,76,59,52,47,42,68,40,18,29.93,29.78,13,1,13,0.00
2013-6-29,90,76,60,52,45,37,66,38,16,29.87,29.73,11,1,11,0.00
2013-6-30,70,61,59,56,55,45,89,82,41,29.90,29.78,14,1,14,0.28